Terminal Aerodrome Forecast
Issued by NWS

Home | Current Version | Previous Version | Text Only | Print | Product List | Glossary On
Versions: 1 2 3 4 5 6 7 8 9 10 11 12 13 14 15 16 17 18 19 20 21 22 23 24 25 26 27 28 29 30 31 32 33 34 35 36 37 38 39 40 41 42
000
FTUS41 KBOX 271952 AAA
TAFBED
TAF AMD
KBED 271952Z 2720/2818 30006KT P6SM OVC015
     FM280000 32006KT P6SM OVC050
     FM280500 33004KT 3SM -SHSN OVC040
     FM281100 33004KT P6SM OVC040
     FM281500 32008KT P6SM OVC050=

USA.gov is the U.S. government's official web portal to all federal, state and local government web resources and services.